TAF Text Data
IDs:
Format:
Raw Decoded Include METAR

Data at: 0149 UTC 20 Sep 2020

TAF for:KSBD (San Bernardino Intl, CA, US) issued at 2320 UTC 19 Sep 2020
Text:KSBD 192320Z 2000/2024 25011KT 5SM HZ SKC
Forecast period:0000 to 0300 UTC 20 September 2020
Forecast type:FROM: standard forecast or significant change
Winds:from the WSW (250 degrees) at 13 MPH (11 knots; 5.7 m/s)
Visibility: 5 sm ( 8 km)
Ceiling:at least 12,000 feet AGL
Clouds:clear skies
Weather:HZ (haze)
Text:FM200300 VRB04KT P6SM SKC
Forecast period:0300 to 2200 UTC 20 September 2020
Forecast type:FROM: standard forecast or significant change
Winds:variable direction winds at 5 MPH (4 knots; 2.1 m/s)
Visibility:6 or more sm (10+ km)
Ceiling:at least 12,000 feet AGL
Clouds:clear skies
Text:FM202200 24011KT P6SM SKC
Forecast period:2200 UTC 20 September 2020 to 0000 UTC 21 September 2020
Forecast type:FROM: standard forecast or significant change
Winds:from the WSW (240 degrees) at 13 MPH (11 knots; 5.7 m/s)
Visibility:6 or more sm (10+ km)
Ceiling:at least 12,000 feet AGL
Clouds:clear skies